createdAt,value
2018-07-16T00:00:36.983Z,7.57
2018-07-16T00:03:05.032Z,7.53
2018-07-16T00:05:33.061Z,7.70
2018-07-16T00:08:01.109Z,8.03
2018-07-16T00:10:29.162Z,7.80
2018-07-16T00:12:57.279Z,7.93
2018-07-16T00:15:25.303Z,8.37
2018-07-16T00:17:53.454Z,8.13
2018-07-16T00:20:21.593Z,7.83
2018-07-16T00:22:49.675Z,8.23
2018-07-16T00:25:17.698Z,8.37
2018-07-16T00:27:45.740Z,8.17
2018-07-16T00:30:13.873Z,8.73
2018-07-16T00:32:41.856Z,8.83
2018-07-16T00:35:10.026Z,8.60
2018-07-16T00:37:38.168Z,8.67
2018-07-16T00:40:06.431Z,9.53
2018-07-16T00:42:34.612Z,8.20
2018-07-16T00:45:02.657Z,9.17
2018-07-16T00:47:30.664Z,8.30
2018-07-16T00:49:58.810Z,8.97
2018-07-16T00:52:26.794Z,8.37
2018-07-16T00:54:54.776Z,8.83
2018-07-16T00:57:22.805Z,8.10
2018-07-16T00:59:50.789Z,8.20
2018-07-16T01:02:18.998Z,8.33
2018-07-16T01:04:47.079Z,9.10
2018-07-16T01:07:15.135Z,9.50
2018-07-16T01:09:43.206Z,8.40
2018-07-16T01:12:11.269Z,9.33
2018-07-16T01:14:39.308Z,9.37
2018-07-16T01:17:08.224Z,9.17
2018-07-16T01:19:36.276Z,9.20
2018-07-16T01:22:04.253Z,9.07
2018-07-16T01:24:32.241Z,10.00
2018-07-16T01:27:00.259Z,8.73
2018-07-16T01:29:28.357Z,9.57
2018-07-16T01:31:56.376Z,8.60
2018-07-16T01:34:24.468Z,8.70
2018-07-16T01:36:52.564Z,8.50
2018-07-16T01:39:20.594Z,8.57
2018-07-16T01:41:48.679Z,8.63
2018-07-16T01:44:16.841Z,7.50
2018-07-16T01:46:45.042Z,7.67
2018-07-16T01:49:13.273Z,8.23
2018-07-16T01:51:41.436Z,8.87
2018-07-16T01:54:09.491Z,8.37
2018-07-16T01:56:37.538Z,8.87
2018-07-16T01:59:05.636Z,8.30
2018-07-16T02:01:33.690Z,8.13
2018-07-16T02:04:01.795Z,8.80
2018-07-16T02:06:29.784Z,8.40
2018-07-16T02:08:57.786Z,8.30
2018-07-16T02:11:25.887Z,8.73
2018-07-16T02:13:53.902Z,8.80
2018-07-16T02:16:21.932Z,8.70
2018-07-16T02:18:49.998Z,9.10
2018-07-16T02:21:18.092Z,8.33
2018-07-16T02:23:46.193Z,7.97
2018-07-16T02:26:14.292Z,7.80
2018-07-16T02:28:42.351Z,8.00
2018-07-16T02:31:10.382Z,8.40
2018-07-16T02:33:38.490Z,8.07
2018-07-16T02:36:06.543Z,8.03
2018-07-16T02:38:34.604Z,8.33
2018-07-16T02:41:02.713Z,8.17
2018-07-16T02:43:30.834Z,8.57
2018-07-16T02:45:58.858Z,8.40
2018-07-16T02:48:26.864Z,8.70
2018-07-16T02:50:55.028Z,9.00
2018-07-16T02:53:23.101Z,9.23
2018-07-16T02:55:51.113Z,9.53
2018-07-16T02:58:19.181Z,9.23
2018-07-16T03:00:47.213Z,8.23
2018-07-16T03:03:15.164Z,9.20
2018-07-16T03:05:43.157Z,9.40
2018-07-16T03:08:11.306Z,8.93
2018-07-16T03:10:39.330Z,9.80
2018-07-16T03:13:07.432Z,9.03
2018-07-16T03:15:35.447Z,8.93
2018-07-16T03:18:03.564Z,8.83
2018-07-16T03:20:31.688Z,9.27
2018-07-16T03:22:59.810Z,9.90
2018-07-16T03:25:27.949Z,8.83
2018-07-16T03:27:55.983Z,9.23
2018-07-16T03:30:23.964Z,8.70
2018-07-16T03:32:52.023Z,9.50
2018-07-16T03:35:20.092Z,8.23
2018-07-16T03:37:48.132Z,8.53
2018-07-16T03:40:16.241Z,7.00
2018-07-16T03:42:44.508Z,7.20
2018-07-16T03:45:12.501Z,7.53
2018-07-16T03:47:40.777Z,7.13
2018-07-16T03:50:08.989Z,6.73
2018-07-16T03:52:37.082Z,6.80
2018-07-16T03:55:05.232Z,6.77
2018-07-16T03:57:33.556Z,6.70
2018-07-16T04:00:01.759Z,6.53
2018-07-16T04:02:29.953Z,6.33
2018-07-16T04:04:58.274Z,6.50
2018-07-16T04:07:26.603Z,6.90
2018-07-16T04:09:54.825Z,6.43
2018-07-16T04:12:22.957Z,6.80
2018-07-16T04:14:51.158Z,6.57
2018-07-16T04:17:19.459Z,6.43
2018-07-16T04:19:47.634Z,6.60
2018-07-16T04:22:15.799Z,6.20
2018-07-16T04:24:44.051Z,6.53
2018-07-16T04:27:12.208Z,6.63
2018-07-16T04:29:40.326Z,6.93
2018-07-16T04:32:08.463Z,6.53
2018-07-16T04:34:36.714Z,6.90
2018-07-16T04:37:04.833Z,7.10
2018-07-16T04:39:33.015Z,7.33
2018-07-16T04:42:01.217Z,6.73
2018-07-16T04:44:29.478Z,6.73
2018-07-16T04:47:02.882Z,7.37
2018-07-16T04:49:31.317Z,6.60
2018-07-16T04:51:59.822Z,6.57
2018-07-16T04:54:28.225Z,7.17
2018-07-16T04:56:56.511Z,7.63
2018-07-16T04:59:25.027Z,6.70
2018-07-16T05:01:53.472Z,6.87
2018-07-16T05:04:26.234Z,7.53
2018-07-16T05:06:55.205Z,6.83
2018-07-16T05:09:23.596Z,7.20
2018-07-16T05:11:51.910Z,7.73
2018-07-16T05:14:20.164Z,8.57
2018-07-16T05:16:48.211Z,7.70
2018-07-16T05:19:16.337Z,7.97
2018-07-16T05:21:44.462Z,8.00
2018-07-16T05:24:13.814Z,7.83
2018-07-16T05:26:42.000Z,8.10
2018-07-16T05:29:10.148Z,8.47
2018-07-16T05:31:38.640Z,8.27
2018-07-16T05:34:06.864Z,7.90
2018-07-16T05:36:35.135Z,8.10
2018-07-16T05:39:04.000Z,8.33
2018-07-16T05:41:32.186Z,8.13
2018-07-16T05:44:01.032Z,8.40
2018-07-16T05:46:29.405Z,9.10
2018-07-16T05:48:57.844Z,8.37
2018-07-16T05:51:26.359Z,8.47
2018-07-16T05:53:54.777Z,8.57
2018-07-16T05:56:23.457Z,9.40
2018-07-16T05:58:51.903Z,9.70
2018-07-16T06:01:20.613Z,9.00
2018-07-16T06:03:49.049Z,10.07
2018-07-16T06:06:17.631Z,9.97
2018-07-16T06:08:46.296Z,11.03
2018-07-16T06:11:15.218Z,10.70
2018-07-16T06:13:43.966Z,10.77
2018-07-16T06:16:12.259Z,12.30
2018-07-16T06:18:40.768Z,11.60
2018-07-16T06:21:09.140Z,9.83
2018-07-16T06:23:37.442Z,10.73
2018-07-16T06:26:05.745Z,10.63
2018-07-16T06:28:34.212Z,11.37
2018-07-16T06:31:02.860Z,11.00
2018-07-16T06:33:31.498Z,9.00
2018-07-16T06:36:00.419Z,10.57
2018-07-16T06:38:28.991Z,9.40
2018-07-16T06:40:57.827Z,8.90
2018-07-16T06:43:26.376Z,10.27
2018-07-16T06:45:55.152Z,9.37
2018-07-16T06:48:23.832Z,9.10
2018-07-16T06:50:52.785Z,10.13
2018-07-16T06:53:21.154Z,10.47
2018-07-16T06:55:49.820Z,9.10
2018-07-16T06:58:18.312Z,8.20
2018-07-16T07:00:46.735Z,8.07
2018-07-16T07:03:15.354Z,8.07
2018-07-16T07:05:43.835Z,9.60
2018-07-16T07:08:12.287Z,9.17
2018-07-16T07:10:40.751Z,8.77
2018-07-16T07:13:09.231Z,8.50
2018-07-16T07:15:37.642Z,8.43
2018-07-16T07:18:06.331Z,8.87
2018-07-16T07:20:34.858Z,8.33
2018-07-16T07:23:03.431Z,8.30
2018-07-16T07:25:31.941Z,7.87
2018-07-16T07:28:00.185Z,8.30
2018-07-16T07:30:29.201Z,9.10
2018-07-16T07:32:58.172Z,8.30
2018-07-16T07:35:27.839Z,7.03
2018-07-16T07:37:56.447Z,8.90
2018-07-16T07:40:25.130Z,7.90
2018-07-16T07:42:53.693Z,8.57
2018-07-16T07:45:22.242Z,7.97
2018-07-16T07:47:50.597Z,8.57
2018-07-16T07:50:19.139Z,8.70
2018-07-16T07:52:47.916Z,7.93
2018-07-16T07:55:16.607Z,7.30
2018-07-16T07:57:44.710Z,7.77
2018-07-16T08:00:13.212Z,8.23
2018-07-16T08:02:41.589Z,7.47
2018-07-16T08:05:10.404Z,8.27
2018-07-16T08:07:39.177Z,8.37
2018-07-16T08:10:08.293Z,7.33
2018-07-16T08:12:36.753Z,7.70
2018-07-16T08:15:05.386Z,8.23
2018-07-16T08:17:33.785Z,8.43
2018-07-16T08:20:02.147Z,7.80
2018-07-16T08:22:30.667Z,7.77
2018-07-16T08:24:59.942Z,7.53
2018-07-16T08:27:28.718Z,7.25
2018-07-16T08:29:57.106Z,7.00
2018-07-16T08:32:25.637Z,7.80
2018-07-16T08:34:53.974Z,7.47
2018-07-16T08:37:22.651Z,7.42
2018-07-16T08:39:51.964Z,7.92
2018-07-16T08:42:20.739Z,8.08
2018-07-16T08:44:49.629Z,7.25
2018-07-16T08:47:18.258Z,7.30
2018-07-16T08:49:47.908Z,6.60
2018-07-16T08:52:16.265Z,7.70
2018-07-16T08:54:44.665Z,7.45
2018-07-16T08:57:13.406Z,7.47
2018-07-16T08:59:42.192Z,6.45
2018-07-16T09:02:10.631Z,6.58
2018-07-16T09:04:39.007Z,6.78
2018-07-16T09:07:07.383Z,6.45
2018-07-16T09:09:35.750Z,6.75
2018-07-16T09:12:04.193Z,6.22
2018-07-16T09:14:32.461Z,7.22
2018-07-16T09:17:00.981Z,7.50
2018-07-16T09:19:29.738Z,7.20
2018-07-16T09:21:58.152Z,7.45
2018-07-16T09:24:26.606Z,6.33
2018-07-16T09:26:55.029Z,6.83
2018-07-16T09:29:23.351Z,8.67
2018-07-16T09:31:51.785Z,6.75
2018-07-16T09:34:20.850Z,6.23
2018-07-16T09:36:49.155Z,5.62
2018-07-16T09:39:18.148Z,6.75
2018-07-16T09:41:46.584Z,6.03
2018-07-16T09:44:15.343Z,6.37
2018-07-16T09:46:43.857Z,6.42
2018-07-16T09:49:12.418Z,6.17
2018-07-16T09:51:41.230Z,6.37
2018-07-16T09:54:10.025Z,6.30
2018-07-16T09:56:39.380Z,5.73
2018-07-16T09:59:07.985Z,5.90
2018-07-16T10:01:42.162Z,5.55
2018-07-16T10:04:10.669Z,5.45
2018-07-16T10:06:39.346Z,5.12
2018-07-16T10:09:08.380Z,5.25
2018-07-16T10:11:36.935Z,4.85
2018-07-16T10:14:05.279Z,5.37
2018-07-16T10:16:33.975Z,4.72
2018-07-16T10:19:02.995Z,4.83
2018-07-16T10:21:31.450Z,4.80
2018-07-16T10:23:59.771Z,4.78
2018-07-16T10:26:28.169Z,5.00
2018-07-16T10:28:56.499Z,5.03
2018-07-16T10:31:24.861Z,4.90
2018-07-16T10:33:53.385Z,5.10
2018-07-16T10:36:21.654Z,5.17
2018-07-16T10:38:50.204Z,4.83
2018-07-16T10:41:18.478Z,5.12
2018-07-16T10:43:46.558Z,4.87
2018-07-16T10:46:14.786Z,4.75
2018-07-16T10:48:42.881Z,4.97
2018-07-16T10:51:11.098Z,4.95
2018-07-16T10:53:39.210Z,5.30
2018-07-16T10:56:07.441Z,5.35
2018-07-16T10:58:35.765Z,4.40
2018-07-16T11:01:04.400Z,4.58
2018-07-16T11:03:32.786Z,4.70
2018-07-16T11:06:06.485Z,4.95
2018-07-16T11:08:34.968Z,4.80
2018-07-16T11:11:03.693Z,4.83
2018-07-16T11:13:32.336Z,4.70
2018-07-16T11:16:00.806Z,4.40
2018-07-16T11:18:29.239Z,4.53
2018-07-16T11:20:57.736Z,4.33
2018-07-16T11:23:26.128Z,4.85
2018-07-16T11:25:55.258Z,4.75
2018-07-16T11:28:24.172Z,5.00
2018-07-16T11:30:52.852Z,5.20
2018-07-16T11:33:21.308Z,5.55
2018-07-16T11:35:49.578Z,5.10
2018-07-16T11:38:18.066Z,4.85
2018-07-16T11:40:46.432Z,4.58
2018-07-16T11:43:14.747Z,4.60
2018-07-16T11:45:43.047Z,4.45
2018-07-16T11:48:11.336Z,3.90
2018-07-16T11:50:39.766Z,4.42
2018-07-16T11:53:08.470Z,3.90
2018-07-16T11:55:38.803Z,3.42
2018-07-16T11:58:08.331Z,3.90
2018-07-16T12:00:36.827Z,3.80
2018-07-16T12:03:05.358Z,3.60
2018-07-16T12:05:33.778Z,3.50
2018-07-16T12:08:02.315Z,3.70
2018-07-16T12:10:30.717Z,3.50
2018-07-16T12:12:59.012Z,3.80
2018-07-16T12:15:27.457Z,3.47
2018-07-16T12:17:55.864Z,3.62
2018-07-16T12:20:24.312Z,4.10
2018-07-16T12:22:52.658Z,3.80
2018-07-16T12:25:23.632Z,4.00
2018-07-16T12:27:52.305Z,3.83
2018-07-16T12:30:20.655Z,3.67
2018-07-16T12:32:49.094Z,4.30
2018-07-16T12:35:17.755Z,3.50
2018-07-16T12:37:46.372Z,3.90
2018-07-16T12:40:14.805Z,3.50
2018-07-16T12:42:43.346Z,3.60
2018-07-16T12:45:11.900Z,3.58
2018-07-16T12:47:40.523Z,3.55
2018-07-16T12:50:09.165Z,3.52
2018-07-16T12:52:37.402Z,3.77
2018-07-16T12:55:05.701Z,3.70
2018-07-16T12:57:33.970Z,3.27
2018-07-16T13:00:02.380Z,3.83
2018-07-16T13:02:30.508Z,3.67
2018-07-16T13:04:58.964Z,3.22
2018-07-16T13:07:27.164Z,3.17
2018-07-16T13:09:55.564Z,3.47
2018-07-16T13:12:24.160Z,3.22
2018-07-16T13:14:52.345Z,3.58
2018-07-16T13:17:20.778Z,3.10
2018-07-16T13:19:53.536Z,3.60
2018-07-16T13:22:25.802Z,3.05
2018-07-16T13:24:57.248Z,4.10
2018-07-16T13:27:26.941Z,3.12
2018-07-16T13:29:55.253Z,3.15
2018-07-16T13:32:23.707Z,3.60
2018-07-16T13:34:52.001Z,3.52
2018-07-16T13:37:20.333Z,3.47
2018-07-16T13:39:48.757Z,3.55
2018-07-16T13:42:16.954Z,3.50
2018-07-16T13:44:45.216Z,3.70
2018-07-16T13:47:13.409Z,3.77
2018-07-16T13:49:41.546Z,3.40
2018-07-16T13:52:09.794Z,3.30
2018-07-16T13:54:38.182Z,3.58
2018-07-16T13:57:06.440Z,3.60
2018-07-16T13:59:34.555Z,4.33
2018-07-16T14:02:02.745Z,4.50
2018-07-16T14:04:30.917Z,3.83
2018-07-16T14:06:59.094Z,3.30
2018-07-16T14:09:27.144Z,3.45
2018-07-16T14:11:55.283Z,3.25
2018-07-16T14:14:23.549Z,3.55
2018-07-16T14:16:51.888Z,3.60
2018-07-16T14:19:20.009Z,3.62
2018-07-16T14:21:48.120Z,3.05
2018-07-16T14:24:16.193Z,3.10
2018-07-16T14:26:44.290Z,3.22
2018-07-16T14:29:12.551Z,3.98
2018-07-16T14:31:40.653Z,2.52
2018-07-16T14:34:08.868Z,3.15
2018-07-16T14:36:37.317Z,2.25
2018-07-16T14:39:06.329Z,2.58
2018-07-16T14:41:34.533Z,2.85
2018-07-16T14:44:02.936Z,3.00
2018-07-16T14:46:31.110Z,2.77
2018-07-16T14:48:59.329Z,2.50
2018-07-16T14:51:27.438Z,2.40
2018-07-16T14:53:55.500Z,2.58
2018-07-16T14:56:23.589Z,3.35
2018-07-16T14:58:51.688Z,2.65
2018-07-16T15:01:19.780Z,2.40
2018-07-16T15:03:47.963Z,3.05
2018-07-16T15:06:16.045Z,2.40
2018-07-16T15:08:44.134Z,2.72
2018-07-16T15:11:12.256Z,2.80
2018-07-16T15:13:40.389Z,2.30
2018-07-16T15:16:08.568Z,2.42
2018-07-16T15:18:36.837Z,2.15
2018-07-16T15:21:05.319Z,2.30
2018-07-16T15:23:33.263Z,2.02
2018-07-16T15:26:01.397Z,2.22
2018-07-16T15:28:29.544Z,2.52
2018-07-16T15:30:57.640Z,2.20
2018-07-16T15:33:25.765Z,2.10
2018-07-16T15:35:53.952Z,2.10
2018-07-16T15:38:22.142Z,2.17
2018-07-16T15:40:50.256Z,2.30
2018-07-16T15:43:18.364Z,2.25
2018-07-16T15:45:46.432Z,2.10
2018-07-16T15:48:14.512Z,2.20
2018-07-16T15:50:42.628Z,1.90
2018-07-16T15:53:10.678Z,2.33
2018-07-16T15:55:38.850Z,1.95
2018-07-16T15:58:06.936Z,2.25
2018-07-16T16:00:35.362Z,2.17
2018-07-16T16:03:03.397Z,2.52
2018-07-16T16:05:31.679Z,2.12
2018-07-16T16:07:59.993Z,2.05
2018-07-16T16:10:28.216Z,2.62
2018-07-16T16:12:56.377Z,2.35
2018-07-16T16:15:24.430Z,2.55
2018-07-16T16:17:52.516Z,2.58
2018-07-16T16:20:21.021Z,2.72
2018-07-16T16:22:49.220Z,2.45
2018-07-16T16:25:17.437Z,2.77
2018-07-16T16:27:45.609Z,2.30
2018-07-16T16:30:13.876Z,3.05
2018-07-16T16:32:41.987Z,2.55
2018-07-16T16:35:10.245Z,2.90
2018-07-16T16:37:38.515Z,2.90
2018-07-16T16:40:06.782Z,2.98
2018-07-16T16:42:34.913Z,2.90
2018-07-16T16:45:03.141Z,3.25
2018-07-16T16:47:31.208Z,2.67
2018-07-16T16:49:59.496Z,2.70
2018-07-16T16:52:27.611Z,3.00
2018-07-16T16:54:55.767Z,2.60
2018-07-16T16:57:23.884Z,2.83
2018-07-16T16:59:51.897Z,2.70
2018-07-16T17:02:20.146Z,2.50
2018-07-16T17:04:48.435Z,3.07
2018-07-16T17:07:16.417Z,2.93
2018-07-16T17:09:44.789Z,3.30
2018-07-16T17:12:12.838Z,3.13
2018-07-16T17:14:41.040Z,3.47
2018-07-16T17:17:09.241Z,3.77
2018-07-16T17:19:37.462Z,3.60
2018-07-16T17:22:05.886Z,3.30
2018-07-16T17:24:34.154Z,3.33
2018-07-16T17:27:02.368Z,3.17
2018-07-16T17:29:30.800Z,3.30
2018-07-16T17:31:59.339Z,3.67
2018-07-16T17:34:27.708Z,3.00
2018-07-16T17:36:56.425Z,3.13
2018-07-16T17:39:24.522Z,3.40
2018-07-16T17:41:52.661Z,3.63
2018-07-16T17:44:20.882Z,3.10
2018-07-16T17:46:49.120Z,3.63
2018-07-16T17:49:17.331Z,3.47
2018-07-16T17:51:46.975Z,3.17
2018-07-16T17:54:16.216Z,3.20
2018-07-16T17:56:44.608Z,3.53
2018-07-16T17:59:12.922Z,3.77
2018-07-16T18:01:41.179Z,3.40
2018-07-16T18:04:09.506Z,3.90
2018-07-16T18:06:38.357Z,3.70
2018-07-16T18:09:07.931Z,3.80
2018-07-16T18:11:36.234Z,3.20
2018-07-16T18:14:05.232Z,4.30
2018-07-16T18:16:33.747Z,4.10
2018-07-16T18:19:02.906Z,3.80
2018-07-16T18:21:31.424Z,3.93
2018-07-16T18:23:59.669Z,4.37
2018-07-16T18:26:28.141Z,3.80
2018-07-16T18:28:56.767Z,4.97
2018-07-16T18:31:24.886Z,3.80
2018-07-16T18:33:53.386Z,4.77
2018-07-16T18:36:21.700Z,4.40
2018-07-16T18:38:49.911Z,4.20
2018-07-16T18:41:18.166Z,4.53
2018-07-16T18:43:46.387Z,4.43
2018-07-16T18:46:14.679Z,4.70
2018-07-16T18:48:42.946Z,4.67
2018-07-16T18:51:11.102Z,4.43
2018-07-16T18:53:39.209Z,4.70
2018-07-16T18:56:07.339Z,4.50
2018-07-16T18:58:35.476Z,5.27
2018-07-16T19:01:03.972Z,5.03
2018-07-16T19:03:32.378Z,5.60
2018-07-16T19:06:01.219Z,5.37
2018-07-16T19:08:29.481Z,4.90
2018-07-16T19:10:57.932Z,5.97
2018-07-16T19:13:26.529Z,5.97
2018-07-16T19:15:55.222Z,5.63
2018-07-16T19:18:23.816Z,5.00
2018-07-16T19:20:52.280Z,5.97
2018-07-16T19:23:20.518Z,6.07
2018-07-16T19:25:48.922Z,5.67
2018-07-16T19:28:17.385Z,5.37
2018-07-16T19:30:45.548Z,5.83
2018-07-16T19:33:13.919Z,5.20
2018-07-16T19:35:42.589Z,5.80
2018-07-16T19:38:11.118Z,4.97
2018-07-16T19:40:39.552Z,6.50
2018-07-16T19:43:08.060Z,5.30
2018-07-16T19:45:36.269Z,5.30
2018-07-16T19:48:04.718Z,5.83
2018-07-16T19:50:32.952Z,5.53
2018-07-16T19:53:01.093Z,5.50
2018-07-16T19:55:29.502Z,5.63
2018-07-16T19:57:57.773Z,5.07
2018-07-16T20:00:25.983Z,4.90
2018-07-16T20:02:54.207Z,4.80
2018-07-16T20:05:22.531Z,4.63
2018-07-16T20:07:50.748Z,5.13
2018-07-16T20:10:19.090Z,4.83
2018-07-16T20:12:47.315Z,6.13
2018-07-16T20:15:19.912Z,5.37
2018-07-16T20:17:48.282Z,5.40
2018-07-16T20:20:16.637Z,5.30
2018-07-16T20:22:44.806Z,6.00
2018-07-16T20:25:13.140Z,5.57
2018-07-16T20:27:41.408Z,5.77
2018-07-16T20:30:10.148Z,6.00
2018-07-16T20:32:38.386Z,5.43
2018-07-16T20:35:06.776Z,5.97
2018-07-16T20:37:35.073Z,5.63
2018-07-16T20:40:03.345Z,5.67
2018-07-16T20:42:31.577Z,5.60
2018-07-16T20:44:59.824Z,6.00
2018-07-16T20:47:28.035Z,5.90
2018-07-16T20:49:56.113Z,5.87
2018-07-16T20:52:24.404Z,5.63
2018-07-16T20:54:52.505Z,6.60
2018-07-16T20:57:20.667Z,6.30
2018-07-16T20:59:48.816Z,6.03
2018-07-16T21:02:16.901Z,5.87
2018-07-16T21:04:45.317Z,6.57
2018-07-16T21:07:13.751Z,6.47
2018-07-16T21:09:41.845Z,6.17
2018-07-16T21:12:09.975Z,6.07
2018-07-16T21:14:38.214Z,6.30
2018-07-16T21:17:06.384Z,5.77
2018-07-16T21:19:34.546Z,6.40
2018-07-16T21:22:02.816Z,6.30
2018-07-16T21:24:31.049Z,5.63
2018-07-16T21:26:59.254Z,5.10
2018-07-16T21:29:27.438Z,6.03
2018-07-16T21:31:55.588Z,5.97
2018-07-16T21:34:23.749Z,6.27
2018-07-16T21:36:51.885Z,5.87
2018-07-16T21:39:20.090Z,6.00
2018-07-16T21:41:48.382Z,5.77
2018-07-16T21:44:16.570Z,5.53
2018-07-16T21:46:44.658Z,5.53
2018-07-16T21:49:12.840Z,6.10
2018-07-16T21:51:41.147Z,5.80
2018-07-16T21:54:09.361Z,5.30
2018-07-16T21:56:38.039Z,5.77
2018-07-16T21:59:06.429Z,6.67
2018-07-16T22:01:34.618Z,6.23
2018-07-16T22:04:02.896Z,5.47
2018-07-16T22:06:31.274Z,5.57
2018-07-16T22:08:59.593Z,5.20
2018-07-16T22:11:27.731Z,5.40
2018-07-16T22:13:55.890Z,5.50
2018-07-16T22:16:24.025Z,5.83
2018-07-16T22:18:52.221Z,6.40
2018-07-16T22:21:20.413Z,5.67
2018-07-16T22:23:48.686Z,6.07
2018-07-16T22:26:16.750Z,5.70
2018-07-16T22:28:44.824Z,6.07
2018-07-16T22:31:12.876Z,6.57
2018-07-16T22:33:40.938Z,6.20
2018-07-16T22:36:09.083Z,6.43
2018-07-16T22:38:37.181Z,6.07
2018-07-16T22:41:05.297Z,5.97
2018-07-16T22:43:33.450Z,6.30
2018-07-16T22:46:01.511Z,5.93
2018-07-16T22:48:29.659Z,5.70
2018-07-16T22:50:57.794Z,6.10
2018-07-16T22:53:25.982Z,5.70
2018-07-16T22:55:54.013Z,5.37
2018-07-16T22:58:22.109Z,5.83
2018-07-16T23:00:50.269Z,6.30
2018-07-16T23:03:18.452Z,5.30
2018-07-16T23:05:46.478Z,5.53
2018-07-16T23:08:16.519Z,5.70
2018-07-16T23:10:44.566Z,5.60
2018-07-16T23:13:12.613Z,5.80
2018-07-16T23:15:40.867Z,6.00
2018-07-16T23:18:08.957Z,5.77
2018-07-16T23:20:37.084Z,5.43
2018-07-16T23:23:05.244Z,5.60
2018-07-16T23:25:33.251Z,6.27
2018-07-16T23:28:01.309Z,6.20
2018-07-16T23:30:29.384Z,6.30
2018-07-16T23:32:57.486Z,6.23
2018-07-16T23:35:25.605Z,6.60
2018-07-16T23:37:53.660Z,6.80
2018-07-16T23:40:21.708Z,7.00
2018-07-16T23:42:49.729Z,6.17
2018-07-16T23:45:17.813Z,6.73
2018-07-16T23:47:45.822Z,6.20
2018-07-16T23:50:13.894Z,6.50
2018-07-16T23:52:41.924Z,6.13
2018-07-16T23:55:10.012Z,6.57
2018-07-16T23:57:38.016Z,6.77
